Overview Statistics Trail Chart Weather Telemetry Raw packets
 

This is the latest recevied telemetry packets stored in our database for station/object DO1PIT-1. If no packets are shown the sender has not sent any telemetry packets the latest 10 day(s).

Telemetry packets is used to share measurements like repeteater parameters, battery voltage, radiation readings (or any other measurements).

<< 1 2 3 4 >>
Time Press* Temp.in* Hum* QNH* Temp.out*
1788606236 962.5 hPa 24 C deg 49.8 % 1023 hPa 0 C deg
1788604421 962.3 hPa 24.7 C deg 50.3 % 1022.6 hPa 0 C deg
1788602606 962.1 hPa 23.2 C deg 50.9 % 1022.8 hPa 0 C deg
1788600791 962.3 hPa 21.4 C deg 56.3 % 1023.3 hPa 0 C deg
1788598976 962.3 hPa 20.8 C deg 60.1 % 1023.5 hPa 0 C deg
1788597161 961.8 hPa 20.4 C deg 59.6 % 1023 hPa 0 C deg
1788595346 961.9 hPa 21.2 C deg 56.3 % 1022.9 hPa 0 C deg
1788593530 961.8 hPa 21.3 C deg 55.9 % 1022.8 hPa 0 C deg
1788592400 961.8 hPa 20.6 C deg 59.3 % 1022.9 hPa 0 C deg
1788590643 961.7 hPa 18.5 C deg 64.3 % 1023.3 hPa 0 C deg
1788590585 961.7 hPa 18.5 C deg 64.3 % 1023.3 hPa 0 C deg
1788588770 960.9 hPa 18.4 C deg 65.8 % 1022.5 hPa 0 C deg
1788586955 960.9 hPa 18.3 C deg 63.2 % 1022.5 hPa 0 C deg
1788585140 960.7 hPa 18.3 C deg 52.9 % 1022.3 hPa 0 C deg
1788583324 960.3 hPa 18.6 C deg 53.1 % 1021.8 hPa 0 C deg
1788581509 959.6 hPa 18.7 C deg 54.2 % 1021 hPa 0 C deg
1788579694 959 hPa 19 C deg 60.2 % 1020.4 hPa 0 C deg
1788577879 958.4 hPa 19.3 C deg 58.9 % 1019.6 hPa 0 C deg
1788576064 957.8 hPa 20.5 C deg 59 % 1018.7 hPa 0 C deg
1788574249 957.1 hPa 21.7 C deg 54.6 % 1017.7 hPa 0 C deg
1788572457 956.9 hPa 22.4 C deg 52.5 % 1017.3 hPa 0 C deg
1788570635 956.8 hPa 22.5 C deg 52.3 % 1017.3 hPa 0 C deg
1788568804 956.6 hPa 22.6 C deg 51.4 % 1017 hPa 0 C deg
1788566988 956.6 hPa 22.7 C deg 50.8 % 1017 hPa 0 C deg
1788565173 956.1 hPa 23 C deg 49.6 % 1016.4 hPa 0 C deg
*Used Equation Coefficients:
Press: 0, 1, 0
Temp.in: 0, 1, 0
Hum: 0, 1, 0
QNH: 0, 1, 0
Temp.out: 0, 1, 0

  • The parameter names for the analog channels will be Value1, Value2, Value3 (up to Value5) if station has not sent a PARAM-packet that specifies the parameter names for each analog channel.
  • Each analog value is a decimal number between 000 and 255 (according to APRS specifications). The receiver use the telemetry equation coefficientsto to restore the original sensor values. If no EQNS-packet with equation coefficients is sent we will show the values as is (this corresponds to the equation coefficients a=0, b=1 and c=0).
    The sent equation coefficients is used in the equation: a * value2 + b * value + c.
  • The units for the analog values will not be shown if station has not sent a UNIT-packet specifying what unit's to use.
  • The parameter names for the digital bits will be Bit1, Bit2, Bit3 (up to Bit8) if station has not sent a PARAM-packet that specifies the parameter names for each digital bit.
  • All bit labels will be named "On" if station has not sent a UNIT-packet that specifies the label of each bit.
  • A bit is considered to be On when the bit is 1 if station has not sent a BITS-packet that specifies another "Bit sense" (a BITS-packet specify the state of the bits that match the BIT labels)